NCAR-RAP Real-Time Weather Data

Output produced by METARs form (12 August 2020  17:55 UTC)
found at http://weather.rap.ucar.edu/surface/
 
KEKN 121751Z AUTO VRB05KT 10SM FEW055 31/18 A3010 RMK AO2 SLP178 T03060183 10306 20189 58010
KEKN 121651Z AUTO 29006KT 10SM CLR 30/19 A3011 RMK AO2 SLP184 T03000194
KEKN 121551Z AUTO 02004KT 10SM CLR 28/21 A3012 RMK AO2 SLP188 T02780206
KEKN 121451Z AUTO 00000KT 10SM CLR 24/20 A3013 RMK AO2 SLP192 T02440200 58006
KEKN 121425Z AUTO 00000KT 10SM FEW004 23/19 A3014 RMK AO2 T02280194
KEKN 121351Z AUTO 00000KT 3SM BR OVC002 21/18 A3014 RMK AO2 SLP199 T02060183 TSNO
KEKN 121337Z AUTO 00000KT 1SM BR OVC002 20/19 A3014 RMK AO2 T02000189 TSNO
KEKN 121321Z AUTO 00000KT 3/4SM BR OVC002 19/18 A3015 RMK AO2 T01940183 TSNO
KEKN 121311Z AUTO 23003KT 1 3/4SM BR OVC002 19/18 A3015 RMK AO2 T01940183 TSNO
KEKN 121300Z AUTO 00000KT 3SM BR OVC002 19/18 A3015 RMK AO2 T01940183 TSNO
KEKN 121251Z AUTO 00000KT 1SM BR OVC002 19/18 A3015 RMK AO2 SLP201 T01940183 TSNO
KEKN 121236Z AUTO 00000KT 1SM BR OVC002 19/18 A3015 RMK AO2 T01940183 TSNO
KEKN 121211Z AUTO 00000KT 1/2SM FG VV002 19/18 A3015 RMK AO2 T01890178 TSNO
KEKN 121151Z AUTO 14003KT 1/4SM FG VV002 19/18 A3015 RMK AO2 SLP198 T01890178 10189 20178 51012 TSNO
KEKN 121141Z AUTO 17003KT 1/2SM FG VV002 19/18 A3015 RMK AO2 T01890178 TSNO
KEKN 121058Z AUTO 00000KT 1/4SM FG VV002 19/18 A3014 RMK AO2 T01890178 TSNO
KEKN 121051Z AUTO 00000KT 1/2SM FG OVC002 19/18 A3014 RMK AO2 SLP193 T01890178 TSNO
KEKN 121041Z AUTO 00000KT 1 1/2SM BR OVC002 19/18 A3014 RMK AO2 T01890178 TSNO
KEKN 120958Z AUTO 00000KT 3SM BR OVC003 19/18 A3013 RMK AO2 T01890178 TSNO
KEKN 120951Z AUTO 00000KT 1 1/4SM BR OVC003 19/18 A3013 RMK AO2 SLP189 T01890178 TSNO
KEKN 120925Z AUTO 00000KT 3/4SM BR VV002 19/18 A3012 RMK AO2 T01890178
KEKN 120913Z AUTO 00000KT 1/4SM FG VV002 19/17 A3012 RMK AO2 T01890172
KEKN 120851Z AUTO 00000KT 1 1/2SM BR OVC002 18/17 A3011 RMK AO2 SLP183 T01830172 51001
KEKN 120844Z AUTO 00000KT 2SM BR OVC002 18/17 A3011 RMK AO2 T01830172
KEKN 120819Z AUTO 00000KT 3SM BR OVC002 19/17 A3011 RMK AO2 T01890172
KEKN 120811Z AUTO 00000KT 2SM BR OVC002 19/17 A3011 RMK AO2 T01890172
KEKN 120751Z AUTO 00000KT 3/4SM BR OVC002 18/17 A3011 RMK AO2 SLP183 T01830172
KEKN 120735Z AUTO 00000KT 1 3/4SM BR OVC003 18/17 A3011 RMK AO2 T01830172
KEKN 120713Z AUTO 00000KT 5SM BR OVC003 18/17 A3011 RMK AO2 T01830172
KEKN 120703Z AUTO 00000KT 2SM BR OVC003 18/17 A3011 RMK AO2 VIS 1V5 T01830167
KEKN 120651Z AUTO 00000KT 1/2SM FG VV002 18/17 A3011 RMK AO2 SLP184 T01830172
KEKN 120642Z AUTO 00000KT 1 1/2SM BR OVC002 18/17 A3011 RMK AO2 T01830172
KEKN 120633Z AUTO 00000KT 3/4SM BR VV002 19/17 A3011 RMK AO2 T01890172
KEKN 120610Z AUTO 00000KT 1/4SM FG VV001 18/17 A3011 RMK AO2 T01830172
KEKN 120606Z AUTO 00000KT 1 1/4SM BR FEW001 18/17 A3011 RMK AO2 VIS 1/4V5 T01830167
KEKN 120551Z AUTO 00000KT 6SM BR FEW002 18/17 A3011 RMK AO2 SLP184 T01780167 10250 20178 51005
KEKN 120531Z AUTO 00000KT 5SM BR SCT002 18/17 A3011 RMK AO2 T01830167
KEKN 120451Z AUTO 00000KT 8SM CLR 19/17 A3011 RMK AO2 SLP184 T01890172 402890156
KEKN 120351Z AUTO 00000KT 10SM CLR 19/18 A3010 RMK AO2 SLP181 T01940178
KEKN 120251Z AUTO 00000KT 10SM CLR 20/18 A3009 RMK AO2 SLP178 T02000183 53014
KEKN 120151Z AUTO 00000KT 10SM CLR 21/18 A3008 RMK AO2 SLP175 T02060183
KEKN 120051Z AUTO 00000KT 10SM CLR 22/19 A3006 RMK AO2 SLP170 T02170189
KEKN 112351Z AUTO 00000KT 10SM CLR 25/19 A3005 RMK AO2 SLP167 T02500194 10289 20250 53004
KEKN 112251Z AUTO 30005KT 10SM CLR 28/18 A3004 RMK AO2 SLP160 T02780183
KEKN 112151Z AUTO 28007KT 10SM FEW120 28/19 A3003 RMK AO2 LTG DSNT SE AND S SLP159 T02830189
KEKN 112051Z AUTO 31008KT 10SM CLR 28/20 A3004 RMK AO2 SLP160 T02830200 55008